createdAt,value
2022-11-06T00:00:16.385Z,98870.66
2022-11-06T00:02:57.683Z,98882.13
2022-11-06T00:05:43.349Z,98885.75
2022-11-06T00:08:10.449Z,98879.50
2022-11-06T00:10:37.672Z,98876.88
2022-11-06T00:13:04.271Z,98882.13
2022-11-06T00:15:32.242Z,98883.06
2022-11-06T00:17:58.860Z,98881.28
2022-11-06T00:20:25.784Z,98883.97
2022-11-06T00:22:52.453Z,98883.13
2022-11-06T00:25:19.369Z,98897.13
2022-11-06T00:27:46.063Z,98892.81
2022-11-06T00:30:13.040Z,98903.34
2022-11-06T00:32:39.964Z,98903.34
2022-11-06T00:35:07.415Z,98905.22
2022-11-06T00:37:34.257Z,98899.06
2022-11-06T00:40:01.344Z,98901.69
2022-11-06T00:42:28.030Z,98913.13
2022-11-06T00:44:54.941Z,98910.44
2022-11-06T00:47:21.593Z,98910.38
2022-11-06T00:49:48.602Z,98897.22
2022-11-06T00:52:15.304Z,98899.00
2022-11-06T00:54:42.250Z,98896.28
2022-11-06T00:57:08.909Z,98900.72
2022-11-06T00:59:35.917Z,98897.28
2022-11-06T01:02:02.745Z,98899.84
2022-11-06T01:04:30.005Z,98901.69
2022-11-06T01:06:56.999Z,98906.03
2022-11-06T01:09:25.319Z,98906.16
2022-11-06T01:12:12.354Z,98907.00
2022-11-06T01:14:40.453Z,98914.91
2022-11-06T01:17:07.250Z,98928.91
2022-11-06T01:19:34.184Z,98926.28
2022-11-06T01:22:00.860Z,98922.75
2022-11-06T01:24:28.738Z,98920.19
2022-11-06T01:27:25.016Z,98916.63
2022-11-06T01:29:42.915Z,98913.06
2022-11-06T01:32:09.543Z,98907.94
2022-11-06T01:34:36.491Z,98914.84
2022-11-06T01:37:03.300Z,98913.06
2022-11-06T01:39:30.445Z,98903.47
2022-11-06T01:41:57.307Z,98912.16
2022-11-06T01:44:33.386Z,98922.81
2022-11-06T01:47:00.973Z,98925.44
2022-11-06T01:49:28.802Z,98919.38
2022-11-06T01:51:57.643Z,98925.50
2022-11-06T01:54:27.388Z,98924.66
2022-11-06T01:56:55.390Z,98922.00
2022-11-06T01:59:24.077Z,98919.38
2022-11-06T02:01:51.335Z,98916.69
2022-11-06T02:04:21.095Z,98912.28
2022-11-06T02:06:48.043Z,98914.00
2022-11-06T02:09:15.620Z,98914.84
2022-11-06T02:11:43.492Z,98925.34
2022-11-06T02:14:13.546Z,98926.22
2022-11-06T02:16:54.696Z,98924.53
2022-11-06T02:19:24.482Z,98921.03
2022-11-06T02:22:05.965Z,98925.38
2022-11-06T02:25:06.177Z,98926.28
2022-11-06T02:27:33.987Z,98922.84
2022-11-06T02:30:08.243Z,98922.81
2022-11-06T02:32:53.135Z,98925.44
2022-11-06T02:35:26.913Z,98931.63
2022-11-06T02:37:57.563Z,98927.22
2022-11-06T02:43:14.455Z,98921.97
2022-11-06T02:45:59.493Z,98926.44
2022-11-06T02:48:30.101Z,98933.47
2022-11-06T02:50:59.031Z,98934.47
2022-11-06T02:53:26.522Z,98944.06
2022-11-06T02:55:56.525Z,98950.16
2022-11-06T02:58:23.208Z,98956.41
2022-11-06T03:00:52.831Z,98951.16
2022-11-06T03:03:19.436Z,98956.41
2022-11-06T03:06:07.606Z,98957.47
2022-11-06T03:08:39.591Z,98967.09
2022-11-06T03:11:12.732Z,98962.66
2022-11-06T03:13:48.210Z,98966.94
2022-11-06T03:16:33.556Z,98969.72
2022-11-06T03:19:04.017Z,98961.81
2022-11-06T03:21:48.938Z,98971.41
2022-11-06T03:24:26.940Z,98960.88
2022-11-06T03:26:58.944Z,98970.56
2022-11-06T03:29:34.709Z,98977.66
2022-11-06T03:32:05.614Z,98971.41
2022-11-06T03:34:36.708Z,98981.94
2022-11-06T03:37:11.475Z,98973.16
2022-11-06T03:39:40.171Z,98971.34
2022-11-06T03:42:10.939Z,98976.69
2022-11-06T03:44:40.815Z,98986.34
2022-11-06T03:47:11.721Z,98992.59
2022-11-06T03:49:44.010Z,98995.22
2022-11-06T03:52:13.478Z,98980.34
2022-11-06T03:54:44.332Z,98990.03
2022-11-06T03:57:13.321Z,98992.72
2022-11-06T03:59:44.220Z,98994.56
2022-11-06T04:02:13.022Z,99005.16
2022-11-06T04:04:49.057Z,99006.03
2022-11-06T04:07:24.815Z,99009.56
2022-11-06T04:10:12.366Z,99013.03
2022-11-06T04:13:00.883Z,99011.25
2022-11-06T04:15:31.468Z,99008.72
2022-11-06T04:17:58.418Z,99021.94
2022-11-06T04:20:47.955Z,99019.34
2022-11-06T04:23:32.285Z,99016.84
2022-11-06T04:26:36.170Z,99016.03
2022-11-06T04:29:08.901Z,99016.09
2022-11-06T04:31:53.891Z,99015.31
2022-11-06T04:34:29.912Z,99017.06
2022-11-06T04:37:02.367Z,99016.19
2022-11-06T04:39:32.595Z,99002.09
2022-11-06T04:42:16.644Z,99009.97
2022-11-06T04:44:45.911Z,99003.81
2022-11-06T04:47:17.682Z,99007.31
2022-11-06T04:49:45.727Z,99006.47
2022-11-06T04:52:16.095Z,99003.81
2022-11-06T04:54:44.488Z,99002.09
2022-11-06T04:57:11.189Z,98995.94
2022-11-06T04:59:38.465Z,99000.31
2022-11-06T05:02:05.881Z,98998.66
2022-11-06T05:04:33.875Z,99007.53
2022-11-06T05:07:00.847Z,99014.53
2022-11-06T05:09:27.819Z,99018.06
2022-11-06T05:11:54.454Z,99021.63
2022-11-06T05:14:21.657Z,99021.63
2022-11-06T05:16:48.604Z,99029.56
2022-11-06T05:19:15.577Z,99022.41
2022-11-06T05:22:00.640Z,99025.91
2022-11-06T05:24:27.563Z,99032.94
2022-11-06T05:26:59.086Z,99030.34
2022-11-06T05:29:26.871Z,99027.69
2022-11-06T05:31:53.544Z,99032.06
2022-11-06T05:34:20.939Z,99027.69
2022-11-06T05:36:47.592Z,99046.09
2022-11-06T05:39:14.506Z,99049.63
2022-11-06T05:41:41.147Z,99052.31
2022-11-06T05:44:08.180Z,99050.47
2022-11-06T05:46:48.134Z,99049.63
2022-11-06T05:49:16.290Z,99050.56
2022-11-06T05:51:43.041Z,99047.00
2022-11-06T05:54:10.024Z,99053.19
2022-11-06T05:56:36.680Z,99053.09
2022-11-06T05:59:03.622Z,99057.53
2022-11-06T06:01:30.583Z,99070.63
2022-11-06T06:03:57.645Z,99059.06
2022-11-06T06:06:24.436Z,99067.78
2022-11-06T06:08:51.396Z,99070.31
2022-11-06T06:11:18.031Z,99070.28
2022-11-06T06:13:45.086Z,99077.25
2022-11-06T06:16:11.821Z,99079.09
2022-11-06T06:18:38.768Z,99080.75
2022-11-06T06:21:05.495Z,99084.28
2022-11-06T06:23:32.843Z,99087.75
2022-11-06T06:25:59.596Z,99093.09
2022-11-06T06:28:27.010Z,99100.06
2022-11-06T06:30:58.609Z,99107.91
2022-11-06T06:33:28.157Z,99106.03
2022-11-06T06:35:54.853Z,99106.00
2022-11-06T06:38:21.807Z,99113.94
2022-11-06T06:40:48.438Z,99105.19
2022-11-06T06:43:15.343Z,99110.44
2022-11-06T06:45:42.017Z,99116.47
2022-11-06T06:48:09.458Z,99117.31
2022-11-06T06:50:36.141Z,99117.31
2022-11-06T06:53:03.943Z,99119.06
2022-11-06T06:55:30.634Z,99124.25
2022-11-06T06:57:59.112Z,99120.59
2022-11-06T07:00:25.858Z,99131.13
2022-11-06T07:02:52.889Z,99117.94
2022-11-06T07:05:19.776Z,99116.94
2022-11-06T07:07:46.872Z,99121.22
2022-11-06T07:10:13.515Z,99122.00
2022-11-06T07:12:40.465Z,99122.78
2022-11-06T07:15:07.960Z,99126.16
2022-11-06T07:17:34.873Z,99129.59
2022-11-06T07:20:01.598Z,99126.88
2022-11-06T07:22:36.629Z,99129.34
2022-11-06T07:25:04.289Z,99120.41
2022-11-06T07:27:31.313Z,99134.47
2022-11-06T07:29:58.041Z,99120.41
2022-11-06T07:32:24.941Z,99123.88
2022-11-06T07:34:51.571Z,99118.47
2022-11-06T07:37:18.494Z,99116.66
2022-11-06T07:39:45.145Z,99113.84
2022-11-06T07:42:12.043Z,99122.50
2022-11-06T07:44:38.683Z,99124.19
2022-11-06T07:47:05.629Z,99126.63
2022-11-06T07:49:32.284Z,99126.63
2022-11-06T07:51:59.267Z,99122.25
2022-11-06T07:54:26.006Z,99124.09
2022-11-06T07:56:53.233Z,99125.00
2022-11-06T07:59:19.872Z,99119.78
2022-11-06T08:01:46.894Z,99133.66
2022-11-06T08:04:13.613Z,99129.00
2022-11-06T08:06:40.544Z,99131.31
2022-11-06T08:09:07.713Z,99138.84
2022-11-06T08:11:34.788Z,99131.53
2022-11-06T08:14:01.613Z,99135.63
2022-11-06T08:16:28.640Z,99131.84
2022-11-06T08:18:55.696Z,99135.09
2022-11-06T08:21:22.632Z,99134.94
2022-11-06T08:23:49.233Z,99132.13
2022-11-06T08:26:16.480Z,99138.94
2022-11-06T08:28:43.349Z,99136.09
2022-11-06T08:31:10.582Z,99131.34
2022-11-06T08:33:37.813Z,99136.41
2022-11-06T08:36:05.396Z,99135.63
2022-11-06T08:38:32.012Z,99137.34
2022-11-06T08:40:58.946Z,99137.22
2022-11-06T08:43:26.721Z,99136.22
2022-11-06T08:45:54.024Z,99141.22
2022-11-06T08:48:20.865Z,99138.53
2022-11-06T08:50:47.912Z,99149.78
2022-11-06T08:53:14.920Z,99148.88
2022-11-06T08:55:42.464Z,99150.69
2022-11-06T08:58:09.170Z,99153.22
2022-11-06T09:00:36.470Z,99149.78
2022-11-06T09:03:07.462Z,99150.78
2022-11-06T09:05:34.422Z,99147.31
2022-11-06T09:08:01.155Z,99152.53
2022-11-06T09:10:28.645Z,99147.91
2022-11-06T09:12:57.837Z,99151.13
2022-11-06T09:15:24.783Z,99148.28
2022-11-06T09:17:51.845Z,99147.22
2022-11-06T09:20:20.159Z,99149.03
2022-11-06T09:22:47.186Z,99148.22
2022-11-06T09:25:14.181Z,99149.03
2022-11-06T09:27:48.357Z,99152.50
2022-11-06T09:30:16.852Z,99153.31
2022-11-06T09:33:02.314Z,99151.47
2022-11-06T09:35:31.854Z,99152.25
2022-11-06T09:38:05.759Z,99151.38
2022-11-06T09:40:51.222Z,99155.78
2022-11-06T09:44:26.104Z,99148.88
2022-11-06T09:46:16.874Z,99145.38
2022-11-06T09:48:45.505Z,99151.66
2022-11-06T09:51:19.444Z,99148.13
2022-11-06T09:53:51.700Z,99143.66
2022-11-06T09:56:21.834Z,99149.03
2022-11-06T09:58:49.718Z,99154.28
2022-11-06T10:01:26.872Z,99147.09
2022-11-06T10:03:59.012Z,99152.25
2022-11-06T10:06:27.323Z,99153.78
2022-11-06T10:08:55.868Z,99145.81
2022-11-06T10:11:22.805Z,99146.50
2022-11-06T10:13:58.346Z,99148.75
2022-11-06T10:16:47.175Z,99141.97
2022-11-06T10:19:16.917Z,99140.41
2022-11-06T10:21:50.800Z,99140.69
2022-11-06T10:24:33.748Z,99136.56
2022-11-06T10:27:04.742Z,99142.25
2022-11-06T10:29:45.535Z,99138.38
2022-11-06T10:32:27.495Z,99134.50
2022-11-06T10:35:03.472Z,99135.94
2022-11-06T10:37:32.977Z,99134.69
2022-11-06T10:40:00.115Z,99123.50
2022-11-06T10:42:37.583Z,99124.47
2022-11-06T10:45:10.814Z,99118.16
2022-11-06T10:47:48.565Z,99124.34
2022-11-06T10:50:16.735Z,99119.22
2022-11-06T10:53:22.136Z,99119.63
2022-11-06T10:55:58.919Z,99118.66
2022-11-06T10:58:30.361Z,99108.16
2022-11-06T11:01:00.075Z,99111.91
2022-11-06T11:03:33.892Z,99111.38
2022-11-06T11:06:01.830Z,99107.09
2022-11-06T11:08:28.786Z,99105.56
2022-11-06T11:11:13.582Z,99110.38
2022-11-06T11:13:40.997Z,99102.84
2022-11-06T11:16:24.427Z,99101.41
2022-11-06T11:18:51.807Z,99096.47
2022-11-06T11:21:18.455Z,99094.03
2022-11-06T11:24:05.674Z,99094.50
2022-11-06T11:26:33.808Z,99090.16
2022-11-06T11:29:12.750Z,99089.97
2022-11-06T11:31:39.691Z,99088.03
2022-11-06T11:34:14.697Z,99089.28
2022-11-06T11:36:51.468Z,99084.22
2022-11-06T11:39:19.867Z,99082.75
2022-11-06T11:41:46.576Z,99078.41
2022-11-06T11:44:13.475Z,99088.53
2022-11-06T11:46:51.300Z,99091.69
2022-11-06T11:49:31.778Z,99086.31
2022-11-06T11:51:59.661Z,99084.84
2022-11-06T11:54:28.647Z,99079.72
2022-11-06T11:57:05.110Z,99075.38
2022-11-06T11:59:53.100Z,99078.94
2022-11-06T12:02:29.760Z,99073.13
2022-11-06T12:04:58.961Z,99064.25
2022-11-06T12:07:30.658Z,99061.63
2022-11-06T12:09:58.797Z,99064.25
2022-11-06T12:12:31.209Z,99057.16
2022-11-06T12:15:03.712Z,99048.38
2022-11-06T12:17:31.330Z,99055.63
2022-11-06T12:19:59.145Z,99050.50
2022-11-06T12:22:34.745Z,99048.78
2022-11-06T12:25:11.012Z,99043.66
2022-11-06T12:27:41.292Z,99046.97
2022-11-06T12:30:08.793Z,99048.69
2022-11-06T12:32:45.677Z,99051.41
2022-11-06T12:35:22.852Z,99042.09
2022-11-06T12:38:09.079Z,99043.28
2022-11-06T12:40:39.000Z,99054.28
2022-11-06T12:43:20.002Z,99046.72
2022-11-06T12:45:46.656Z,99050.78
2022-11-06T12:48:36.853Z,99054.13
2022-11-06T12:51:03.448Z,99046.81
2022-11-06T12:53:47.353Z,99054.28
2022-11-06T12:56:14.035Z,99050.31
2022-11-06T12:58:50.694Z,99051.41
2022-11-06T13:01:24.438Z,99049.00
2022-11-06T13:03:57.504Z,99044.78
2022-11-06T13:06:43.087Z,99050.31
2022-11-06T13:09:30.255Z,99038.94
2022-11-06T13:12:20.314Z,99045.19
2022-11-06T13:15:07.725Z,99044.22
2022-11-06T13:17:44.222Z,99050.53
2022-11-06T13:20:17.072Z,99048.06
2022-11-06T13:23:02.429Z,99051.53
2022-11-06T13:25:39.643Z,99055.09
2022-11-06T13:28:15.913Z,99048.19
2022-11-06T13:30:43.779Z,99058.75
2022-11-06T13:33:10.368Z,99053.56
2022-11-06T13:35:39.277Z,99051.00
2022-11-06T13:38:07.420Z,99059.13
2022-11-06T13:40:40.560Z,99061.22
2022-11-06T13:43:15.127Z,99064.78
2022-11-06T13:45:45.854Z,99058.72
2022-11-06T13:48:29.176Z,99058.81
2022-11-06T13:51:18.081Z,99058.94
2022-11-06T13:53:48.999Z,99061.78
2022-11-06T13:56:31.992Z,99060.25
2022-11-06T13:59:20.021Z,99056.97
2022-11-06T14:02:17.153Z,99050.09
2022-11-06T14:05:03.234Z,99050.31
2022-11-06T14:07:30.824Z,99048.69
2022-11-06T14:09:57.935Z,99047.13
2022-11-06T14:12:24.936Z,99049.13
2022-11-06T14:15:11.525Z,99053.72
2022-11-06T14:17:38.490Z,99054.84
2022-11-06T14:20:07.423Z,99052.34
2022-11-06T14:22:38.466Z,99059.47
2022-11-06T14:25:23.967Z,99057.03
2022-11-06T14:27:50.859Z,99061.56
2022-11-06T14:31:10.389Z,99057.28
2022-11-06T14:33:48.123Z,99062.72
2022-11-06T14:36:23.861Z,99061.16
2022-11-06T14:38:51.369Z,99059.56
2022-11-06T14:41:42.198Z,99063.13
2022-11-06T14:44:20.774Z,99057.97
2022-11-06T14:46:52.096Z,99054.63
2022-11-06T14:49:28.416Z,99051.28
2022-11-06T14:52:21.564Z,99046.16
2022-11-06T14:54:51.332Z,99050.69
2022-11-06T14:57:33.742Z,99047.31
2022-11-06T15:00:00.610Z,99044.84
2022-11-06T15:02:29.547Z,99052.88
2022-11-06T15:05:05.163Z,99064.41
2022-11-06T15:08:03.319Z,99059.34
2022-11-06T15:10:56.337Z,99063.81
2022-11-06T15:13:25.585Z,99064.03
2022-11-06T15:16:03.576Z,99062.31
2022-11-06T15:18:33.034Z,99062.47
2022-11-06T15:21:04.911Z,99059.03
2022-11-06T15:23:40.779Z,99066.94
2022-11-06T15:26:27.449Z,99063.44
2022-11-06T15:29:18.040Z,99060.03
2022-11-06T15:31:49.211Z,99061.94
2022-11-06T15:34:20.148Z,99052.28
2022-11-06T15:36:49.405Z,99053.22
2022-11-06T15:39:34.941Z,99056.84
2022-11-06T15:42:01.661Z,99064.81
2022-11-06T15:44:28.872Z,99063.13
2022-11-06T15:46:59.117Z,99066.66
2022-11-06T15:49:26.185Z,99054.53
2022-11-06T15:51:54.494Z,99058.09
2022-11-06T15:54:38.145Z,99051.13
2022-11-06T15:57:25.086Z,99061.78
2022-11-06T16:00:07.559Z,99061.84
2022-11-06T16:02:34.589Z,99062.78
2022-11-06T16:05:01.739Z,99057.50
2022-11-06T16:07:29.463Z,99061.06
2022-11-06T16:09:56.396Z,99057.50
2022-11-06T16:12:23.131Z,99055.72
2022-11-06T16:14:50.086Z,99055.72
2022-11-06T16:17:18.973Z,99056.56
2022-11-06T16:19:47.646Z,99064.47
2022-11-06T16:22:16.442Z,99061.84
2022-11-06T16:24:46.445Z,99053.28
2022-11-06T16:27:13.663Z,99058.75
2022-11-06T16:29:45.817Z,99051.03
2022-11-06T16:32:17.920Z,99053.72
2022-11-06T16:34:46.119Z,99056.50
2022-11-06T16:37:15.817Z,99056.53
2022-11-06T16:39:50.923Z,99057.53
2022-11-06T16:42:33.010Z,99055.84
2022-11-06T16:44:59.685Z,99061.16
2022-11-06T16:47:29.709Z,99051.56
2022-11-06T16:49:57.292Z,99056.81
2022-11-06T16:52:34.444Z,99052.41
2022-11-06T16:55:01.316Z,99053.38
2022-11-06T16:57:30.062Z,99047.25
2022-11-06T16:59:59.192Z,99043.03
2022-11-06T17:02:28.075Z,99037.03
2022-11-06T17:05:12.265Z,99037.03
2022-11-06T17:07:39.913Z,99026.44
2022-11-06T17:10:25.224Z,99027.28
2022-11-06T17:12:52.178Z,99026.56
2022-11-06T17:15:19.455Z,99026.56
2022-11-06T17:17:46.394Z,99032.81
2022-11-06T17:20:17.521Z,99031.97
2022-11-06T17:22:44.854Z,99045.06
2022-11-06T17:25:11.505Z,99036.28
2022-11-06T17:27:38.444Z,99039.00
2022-11-06T17:30:05.253Z,99034.59
2022-11-06T17:32:32.206Z,99024.91
2022-11-06T17:34:58.901Z,99031.91
2022-11-06T17:37:25.963Z,99025.75
2022-11-06T17:39:52.771Z,99023.00
2022-11-06T17:42:19.681Z,99022.16
2022-11-06T17:44:46.308Z,99022.94
2022-11-06T17:47:13.260Z,99020.38
2022-11-06T17:49:39.940Z,99022.06
2022-11-06T17:52:06.910Z,99023.72
2022-11-06T17:54:34.003Z,99022.81
2022-11-06T17:57:02.142Z,99032.41
2022-11-06T17:59:28.904Z,99026.31
2022-11-06T18:01:56.329Z,99025.56
2022-11-06T18:04:23.814Z,99023.66
2022-11-06T18:06:52.288Z,99032.63
2022-11-06T18:09:19.559Z,99028.19
2022-11-06T18:11:49.384Z,99025.66
2022-11-06T18:14:16.135Z,99027.28
2022-11-06T18:16:44.140Z,99026.50
2022-11-06T18:19:12.436Z,99023.88
2022-11-06T18:21:39.329Z,99026.56
2022-11-06T18:24:06.159Z,99025.66
2022-11-06T18:26:33.130Z,99020.28
2022-11-06T18:29:00.125Z,99029.00
2022-11-06T18:31:27.077Z,99028.03
2022-11-06T18:33:53.736Z,99028.03
2022-11-06T18:36:20.655Z,99030.66
2022-11-06T18:38:47.714Z,99027.16
2022-11-06T18:41:16.127Z,99032.38
2022-11-06T18:43:42.771Z,99024.47
2022-11-06T18:46:14.019Z,99027.03
2022-11-06T18:48:41.221Z,99034.00
2022-11-06T18:51:09.533Z,99030.53
2022-11-06T18:53:36.379Z,99026.16
2022-11-06T18:56:03.477Z,99023.53
2022-11-06T18:58:30.149Z,99016.50
2022-11-06T19:01:01.637Z,99014.72
2022-11-06T19:03:28.797Z,99003.25
2022-11-06T19:05:55.919Z,99002.34
2022-11-06T19:08:22.580Z,98997.94
2022-11-06T19:10:49.516Z,98998.88
2022-11-06T19:13:17.418Z,98993.66
2022-11-06T19:15:45.065Z,99001.59
2022-11-06T19:18:12.779Z,99000.94
2022-11-06T19:20:40.941Z,98996.53
2022-11-06T19:23:07.825Z,99000.09
2022-11-06T19:25:34.767Z,98998.31
2022-11-06T19:28:03.019Z,99004.44
2022-11-06T19:30:30.298Z,98998.38
2022-11-06T19:32:56.977Z,98988.88
2022-11-06T19:35:24.060Z,98999.34
2022-11-06T19:37:50.760Z,98985.19
2022-11-06T19:40:17.729Z,98993.94
2022-11-06T19:42:44.381Z,98996.66
2022-11-06T19:45:11.318Z,99001.94
2022-11-06T19:47:39.289Z,99003.72
2022-11-06T19:50:06.611Z,98996.72
2022-11-06T19:52:41.966Z,98997.56
2022-11-06T19:55:26.838Z,98996.66
2022-11-06T19:57:57.231Z,99008.06
2022-11-06T20:00:24.155Z,99015.03
2022-11-06T20:02:51.150Z,99011.50
2022-11-06T20:05:18.236Z,99010.50
2022-11-06T20:07:44.937Z,99011.34
2022-11-06T20:10:11.864Z,99011.28
2022-11-06T20:12:38.495Z,99003.44
2022-11-06T20:15:05.654Z,99013.19
2022-11-06T20:17:33.471Z,99017.59
2022-11-06T20:20:00.380Z,99017.66
2022-11-06T20:22:27.377Z,99018.59
2022-11-06T20:24:54.335Z,99015.03
2022-11-06T20:27:21.003Z,99018.59
2022-11-06T20:29:47.911Z,99023.91
2022-11-06T20:32:18.827Z,99015.16
2022-11-06T20:34:46.293Z,99019.59
2022-11-06T20:37:13.074Z,99016.91
2022-11-06T20:39:41.675Z,99015.16
2022-11-06T20:42:08.356Z,99009.03
2022-11-06T20:44:35.281Z,99005.63
2022-11-06T20:47:01.983Z,99011.72
2022-11-06T20:49:28.895Z,99007.41
2022-11-06T20:52:13.202Z,99010.94
2022-11-06T20:54:46.374Z,99013.72
2022-11-06T20:57:14.842Z,99004.97
2022-11-06T20:59:41.909Z,99011.13
2022-11-06T21:02:10.919Z,99007.66
2022-11-06T21:04:38.151Z,99008.59
2022-11-06T21:07:04.823Z,98998.94
2022-11-06T21:09:31.841Z,99004.25
2022-11-06T21:11:58.477Z,99004.34
2022-11-06T21:14:25.472Z,99006.97
2022-11-06T21:16:53.228Z,99000.97
2022-11-06T21:19:20.222Z,98994.13
2022-11-06T21:21:47.122Z,98998.66
2022-11-06T21:24:14.072Z,98992.72
2022-11-06T21:26:40.774Z,98986.59
2022-11-06T21:29:09.114Z,99005.06
2022-11-06T21:31:35.816Z,98990.25
2022-11-06T21:34:03.282Z,98993.81
2022-11-06T21:36:31.314Z,98988.66
2022-11-06T21:38:59.972Z,98983.50
2022-11-06T21:41:27.408Z,98994.91
2022-11-06T21:43:54.364Z,98994.91
2022-11-06T21:46:22.106Z,98990.72
2022-11-06T21:48:49.653Z,98992.41
2022-11-06T21:51:22.741Z,98988.00
2022-11-06T21:54:08.949Z,98981.88
2022-11-06T21:56:35.876Z,98981.09
2022-11-06T21:59:03.864Z,98981.13
2022-11-06T22:01:30.719Z,98975.97
2022-11-06T22:03:58.171Z,98969.81
2022-11-06T22:06:25.979Z,98975.22
2022-11-06T22:08:54.036Z,98975.22
2022-11-06T22:11:25.090Z,98980.44
2022-11-06T22:13:52.624Z,98970.88
2022-11-06T22:16:21.594Z,98976.06
2022-11-06T22:18:48.753Z,98976.06
2022-11-06T22:21:25.637Z,98979.56
2022-11-06T22:23:53.107Z,98974.38
2022-11-06T22:26:21.204Z,98982.97
2022-11-06T22:28:48.537Z,98977.66
2022-11-06T22:31:15.206Z,98974.97
2022-11-06T22:33:42.176Z,98971.50
2022-11-06T22:36:13.354Z,98960.09
2022-11-06T22:38:41.896Z,98971.72
2022-11-06T22:41:10.783Z,98955.09
2022-11-06T22:43:37.707Z,98968.25
2022-11-06T22:46:05.780Z,98954.22
2022-11-06T22:48:33.310Z,98961.31
2022-11-06T22:51:07.722Z,98952.66
2022-11-06T22:53:35.128Z,98958.78
2022-11-06T22:56:01.817Z,98957.13
2022-11-06T22:58:29.258Z,98957.19
2022-11-06T23:00:56.893Z,98968.59
2022-11-06T23:03:24.700Z,98961.47
2022-11-06T23:05:51.696Z,98960.56
2022-11-06T23:08:18.611Z,98952.66
2022-11-06T23:10:45.622Z,98957.81
2022-11-06T23:13:12.605Z,98945.56
2022-11-06T23:15:40.807Z,98946.47
2022-11-06T23:18:07.474Z,98951.69
2022-11-06T23:20:34.745Z,98948.25
2022-11-06T23:23:02.036Z,98949.06
2022-11-06T23:25:29.314Z,98950.78
2022-11-06T23:27:56.393Z,98949.06
2022-11-06T23:30:23.341Z,98947.31
2022-11-06T23:32:50.811Z,98943.78
2022-11-06T23:35:19.485Z,98938.53
2022-11-06T23:37:47.781Z,98942.94
2022-11-06T23:40:14.754Z,98943.78
2022-11-06T23:42:43.304Z,98941.13
2022-11-06T23:45:30.130Z,98939.41
2022-11-06T23:47:56.999Z,98939.22
2022-11-06T23:50:23.949Z,98940.16
2022-11-06T23:52:50.575Z,98936.66
2022-11-06T23:55:17.698Z,98932.31
2022-11-06T23:57:44.410Z,98941.84
